Etusivu
METAR-TAF:

METAR-TAF

Lentoasemat :

Pecos, Texas, Yhdysvallat

Leveyspiiri: 31-22-56N, Pituuspiiri: 103-30-38W, korkeus merenpinnasta: 796 m

Tämänhetkinen sää

Tämä raportti tehtiin 34 minuuttia sitten, kello 14.15 UTC
Tuuli 5 kn idästä/koillisesta
Lämpötila 26°C
Kosteus 61%
Ilmanpaine 1018 hPa
Näkyvyys: 16.1 km

METAR: KPEQ 121415Z AUTO 07005KT 10SM 26/18 A3006 RMK AO2 T02600180

Aika: 09:49 (14:49 UTC)

Sääennuste

Tämä raportti tehtiin 3 tuntia ja 29 minuuttia sitten, kello 11.20 UTC
Ennuste voimassa 12. päivästä klo 12 UTC - 13. päivään klo 12 UTC
Tuuli 4 kn idästä
Näkyvyys: 10 km
selkeää
From 13. päivästä klo 0300 UTC
Tuuli 14 kn kaakosta
Näkyvyys: 10 km
selkeää
From 13. päivästä klo 1000 UTC
Tuuli 8 kn kaakosta
Näkyvyys: 10 km
selkeää

TAF: KPEQ 121120Z 1212/1312 10004KT P6SM SKC FM130300 13014KT P6SM SKC FM131000 13008KT P6SM SKC

Säähavainnot ja -ennusteet yli 4000 lentoasemalta (METAR- ja TAF-raportit).

Käytössä olevat sääasemat on merkitty karttaan keltaisilla ja punaisilla pisteillä.

Aseta hiiri pisteen päälle nähdäksesi sääaseman nimen.

Klikkaa sitten nähdäksesi säähavainnot ja -ennusteet.

Kartan vaihtaminen: klikkaa mustalla rastilla varustettuja vihreitä pisteitä, niin voit zoomata sisään; viivalla varustettua vihreää pistettä, niin voit zoomata ulos tai vihreitä nuolia, niin pääset viereisille kartoille.


METAR-TAF: